sensor_id;sensor_type;location;lat;lon;timestamp;temperature;humidity
612;DHT22;293;53.888;11.464;2022-08-04T00:00:00;22.70;99.90
612;DHT22;293;53.888;11.464;2022-08-04T00:02:44;22.70;99.90
612;DHT22;293;53.888;11.464;2022-08-04T00:05:22;22.70;99.90
612;DHT22;293;53.888;11.464;2022-08-04T00:07:57;22.70;99.90
612;DHT22;293;53.888;11.464;2022-08-04T00:10:27;22.70;99.90
612;DHT22;293;53.888;11.464;2022-08-04T00:12:57;22.70;99.90
612;DHT22;293;53.888;11.464;2022-08-04T00:15:26;22.60;99.90
612;DHT22;293;53.888;11.464;2022-08-04T00:17:57;22.60;99.90
612;DHT22;293;53.888;11.464;2022-08-04T00:20:29;22.50;99.90
612;DHT22;293;53.888;11.464;2022-08-04T00:22:56;22.50;99.90
612;DHT22;293;53.888;11.464;2022-08-04T00:25:25;22.50;99.90
612;DHT22;293;53.888;11.464;2022-08-04T00:27:52;22.60;99.90
612;DHT22;293;53.888;11.464;2022-08-04T00:30:21;22.60;99.90
612;DHT22;293;53.888;11.464;2022-08-04T00:32:48;22.60;99.90
612;DHT22;293;53.888;11.464;2022-08-04T00:35:16;22.60;99.90
612;DHT22;293;53.888;11.464;2022-08-04T00:37:44;22.60;99.90
612;DHT22;293;53.888;11.464;2022-08-04T00:40:27;22.60;99.90
612;DHT22;293;53.888;11.464;2022-08-04T00:43:07;22.50;99.90
612;DHT22;293;53.888;11.464;2022-08-04T00:45:55;22.50;99.90
612;DHT22;293;53.888;11.464;2022-08-04T00:48:36;22.50;99.90
612;DHT22;293;53.888;11.464;2022-08-04T00:51:13;22.50;99.90
612;DHT22;293;53.888;11.464;2022-08-04T00:53:54;22.40;99.90
612;DHT22;293;53.888;11.464;2022-08-04T00:56:46;22.40;99.90
612;DHT22;293;53.888;11.464;2022-08-04T00:59:42;22.40;99.90
612;DHT22;293;53.888;11.464;2022-08-04T01:02:24;22.30;99.90
612;DHT22;293;53.888;11.464;2022-08-04T01:05:02;22.30;99.90
612;DHT22;293;53.888;11.464;2022-08-04T01:07:48;22.20;99.90
612;DHT22;293;53.888;11.464;2022-08-04T01:10:25;22.20;99.90
612;DHT22;293;53.888;11.464;2022-08-04T01:13:25;22.20;99.90
612;DHT22;293;53.888;11.464;2022-08-04T01:15:56;22.20;99.90
612;DHT22;293;53.888;11.464;2022-08-04T01:18:32;22.20;99.90
612;DHT22;293;53.888;11.464;2022-08-04T01:21:17;22.20;99.90
612;DHT22;293;53.888;11.464;2022-08-04T01:24:14;22.20;99.90
612;DHT22;293;53.888;11.464;2022-08-04T01:26:54;22.30;99.90
612;DHT22;293;53.888;11.464;2022-08-04T01:29:25;22.30;99.90
612;DHT22;293;53.888;11.464;2022-08-04T01:32:02;22.40;99.90
612;DHT22;293;53.888;11.464;2022-08-04T01:34:33;22.30;99.90
612;DHT22;293;53.888;11.464;2022-08-04T01:37:10;22.40;99.90
612;DHT22;293;53.888;11.464;2022-08-04T01:39:48;22.40;99.90
612;DHT22;293;53.888;11.464;2022-08-04T01:42:19;22.40;99.90
612;DHT22;293;53.888;11.464;2022-08-04T01:44:49;22.40;99.90
612;DHT22;293;53.888;11.464;2022-08-04T01:47:20;22.40;99.90
612;DHT22;293;53.888;11.464;2022-08-04T01:49:49;22.40;99.90
612;DHT22;293;53.888;11.464;2022-08-04T01:52:18;22.30;99.90
612;DHT22;293;53.888;11.464;2022-08-04T01:54:45;22.30;99.90
612;DHT22;293;53.888;11.464;2022-08-04T01:57:16;22.20;99.90
612;DHT22;293;53.888;11.464;2022-08-04T01:59:44;22.20;99.90
612;DHT22;293;53.888;11.464;2022-08-04T02:02:14;22.20;99.90
612;DHT22;293;53.888;11.464;2022-08-04T02:04:41;22.10;99.90
612;DHT22;293;53.888;11.464;2022-08-04T02:07:28;22.10;99.90
612;DHT22;293;53.888;11.464;2022-08-04T02:10:03;22.00;99.90
612;DHT22;293;53.888;11.464;2022-08-04T02:12:42;22.00;99.90
612;DHT22;293;53.888;11.464;2022-08-04T02:15:19;21.90;99.90
612;DHT22;293;53.888;11.464;2022-08-04T02:17:59;21.90;99.90
612;DHT22;293;53.888;11.464;2022-08-04T02:20:29;21.80;99.90
612;DHT22;293;53.888;11.464;2022-08-04T02:23:00;21.80;99.90
612;DHT22;293;53.888;11.464;2022-08-04T02:25:29;21.70;99.90
612;DHT22;293;53.888;11.464;2022-08-04T02:28:20;21.70;99.90
612;DHT22;293;53.888;11.464;2022-08-04T02:31:01;21.60;99.90
612;DHT22;293;53.888;11.464;2022-08-04T02:33:36;21.60;99.90
612;DHT22;293;53.888;11.464;2022-08-04T02:36:05;21.60;99.90
612;DHT22;293;53.888;11.464;2022-08-04T02:38:54;21.60;99.90
612;DHT22;293;53.888;11.464;2022-08-04T02:41:23;21.50;99.90
612;DHT22;293;53.888;11.464;2022-08-04T02:43:54;21.50;99.90
612;DHT22;293;53.888;11.464;2022-08-04T02:46:21;21.40;99.90
612;DHT22;293;53.888;11.464;2022-08-04T02:48:50;21.40;99.90
612;DHT22;293;53.888;11.464;2022-08-04T02:51:21;21.40;99.90
612;DHT22;293;53.888;11.464;2022-08-04T02:53:51;21.30;99.90
612;DHT22;293;53.888;11.464;2022-08-04T02:56:19;21.30;99.90
612;DHT22;293;53.888;11.464;2022-08-04T02:58:51;21.30;99.90
612;DHT22;293;53.888;11.464;2022-08-04T03:01:19;21.30;99.90
612;DHT22;293;53.888;11.464;2022-08-04T03:03:53;21.30;99.90
612;DHT22;293;53.888;11.464;2022-08-04T03:06:57;21.20;99.90
612;DHT22;293;53.888;11.464;2022-08-04T03:09:38;21.20;99.90
612;DHT22;293;53.888;11.464;2022-08-04T03:12:31;21.10;99.90
612;DHT22;293;53.888;11.464;2022-08-04T03:15:28;21.10;99.90
612;DHT22;293;53.888;11.464;2022-08-04T03:24:35;21.10;99.90
612;DHT22;293;53.888;11.464;2022-08-04T03:27:17;21.10;99.90
612;DHT22;293;53.888;11.464;2022-08-04T03:30:02;21.10;99.90
612;DHT22;293;53.888;11.464;2022-08-04T03:33:05;21.10;99.90
612;DHT22;293;53.888;11.464;2022-08-04T03:39:08;21.10;99.90
612;DHT22;293;53.888;11.464;2022-08-04T03:42:00;21.00;99.90
612;DHT22;293;53.888;11.464;2022-08-04T03:47:43;21.00;99.90
612;DHT22;293;53.888;11.464;2022-08-04T03:53:43;21.10;99.90
612;DHT22;293;53.888;11.464;2022-08-04T03:56:37;21.20;99.90
612;DHT22;293;53.888;11.464;2022-08-04T04:08:46;21.40;99.90
612;DHT22;293;53.888;11.464;2022-08-04T04:14:43;21.90;99.90
612;DHT22;293;53.888;11.464;2022-08-04T04:20:32;23.70;99.90
612;DHT22;293;53.888;11.464;2022-08-04T04:23:16;24.50;99.90
612;DHT22;293;53.888;11.464;2022-08-04T04:25:54;25.40;99.90
612;DHT22;293;53.888;11.464;2022-08-04T04:28:37;26.30;99.90
612;DHT22;293;53.888;11.464;2022-08-04T04:31:28;27.20;99.60
612;DHT22;293;53.888;11.464;2022-08-04T04:34:07;28.00;97.20
612;DHT22;293;53.888;11.464;2022-08-04T04:36:40;29.00;95.10
612;DHT22;293;53.888;11.464;2022-08-04T04:39:15;29.80;93.20
612;DHT22;293;53.888;11.464;2022-08-04T04:42:05;30.70;91.40
612;DHT22;293;53.888;11.464;2022-08-04T04:44:55;31.50;88.80
612;DHT22;293;53.888;11.464;2022-08-04T04:47:36;32.40;85.30
612;DHT22;293;53.888;11.464;2022-08-04T04:50:13;33.20;82.40
612;DHT22;293;53.888;11.464;2022-08-04T04:52:46;33.90;79.50
612;DHT22;293;53.888;11.464;2022-08-04T04:55:19;34.60;76.70
612;DHT22;293;53.888;11.464;2022-08-04T04:57:50;35.30;73.90
612;DHT22;293;53.888;11.464;2022-08-04T05:00:17;35.80;71.60
612;DHT22;293;53.888;11.464;2022-08-04T05:03:04;36.30;70.90
612;DHT22;293;53.888;11.464;2022-08-04T05:05:51;37.00;68.50
612;DHT22;293;53.888;11.464;2022-08-04T05:08:40;37.80;66.50
612;DHT22;293;53.888;11.464;2022-08-04T05:11:24;38.70;64.10
612;DHT22;293;53.888;11.464;2022-08-04T05:14:00;39.60;61.80
612;DHT22;293;53.888;11.464;2022-08-04T05:16:32;40.40;59.60
612;DHT22;293;53.888;11.464;2022-08-04T05:19:08;40.90;57.90
612;DHT22;293;53.888;11.464;2022-08-04T05:21:40;41.20;56.70
612;DHT22;293;53.888;11.464;2022-08-04T05:24:10;41.50;56.00
612;DHT22;293;53.888;11.464;2022-08-04T05:26:42;41.40;55.40
612;DHT22;293;53.888;11.464;2022-08-04T05:29:17;41.50;55.60
612;DHT22;293;53.888;11.464;2022-08-04T05:31:50;42.00;54.60
612;DHT22;293;53.888;11.464;2022-08-04T05:34:20;42.30;53.70
612;DHT22;293;53.888;11.464;2022-08-04T05:36:50;42.80;53.20
612;DHT22;293;53.888;11.464;2022-08-04T05:39:21;43.30;52.50
612;DHT22;293;53.888;11.464;2022-08-04T05:41:49;43.60;51.20
612;DHT22;293;53.888;11.464;2022-08-04T05:44:18;43.90;50.60
612;DHT22;293;53.888;11.464;2022-08-04T05:46:48;43.90;49.80
612;DHT22;293;53.888;11.464;2022-08-04T05:49:16;44.10;49.80
612;DHT22;293;53.888;11.464;2022-08-04T05:51:45;44.30;50.20
612;DHT22;293;53.888;11.464;2022-08-04T05:54:13;44.60;48.90
612;DHT22;293;53.888;11.464;2022-08-04T05:56:41;44.80;48.80
612;DHT22;293;53.888;11.464;2022-08-04T05:59:10;45.00;48.20
612;DHT22;293;53.888;11.464;2022-08-04T06:01:39;45.20;46.90
612;DHT22;293;53.888;11.464;2022-08-04T06:04:07;45.40;46.90
612;DHT22;293;53.888;11.464;2022-08-04T06:06:36;45.70;45.40
612;DHT22;293;53.888;11.464;2022-08-04T06:09:04;46.00;45.20
612;DHT22;293;53.888;11.464;2022-08-04T06:11:32;46.00;44.90
612;DHT22;293;53.888;11.464;2022-08-04T06:14:04;46.20;44.80
612;DHT22;293;53.888;11.464;2022-08-04T06:16:36;46.40;44.80
612;DHT22;293;53.888;11.464;2022-08-04T06:19:07;46.70;44.40
612;DHT22;293;53.888;11.464;2022-08-04T06:21:38;46.80;44.30
612;DHT22;293;53.888;11.464;2022-08-04T06:24:08;46.90;44.10
612;DHT22;293;53.888;11.464;2022-08-04T06:26:37;46.90;44.10
612;DHT22;293;53.888;11.464;2022-08-04T06:29:06;46.50;44.30
612;DHT22;293;53.888;11.464;2022-08-04T06:31:41;46.30;44.80
612;DHT22;293;53.888;11.464;2022-08-04T06:34:14;46.30;44.60
612;DHT22;293;53.888;11.464;2022-08-04T06:36:41;46.50;45.30
612;DHT22;293;53.888;11.464;2022-08-04T06:39:10;46.50;43.90
612;DHT22;293;53.888;11.464;2022-08-04T06:41:37;46.50;43.90
612;DHT22;293;53.888;11.464;2022-08-04T06:44:07;46.30;44.30
612;DHT22;293;53.888;11.464;2022-08-04T06:46:36;46.00;44.40
612;DHT22;293;53.888;11.464;2022-08-04T06:49:04;45.30;44.50
612;DHT22;293;53.888;11.464;2022-08-04T06:51:33;44.00;45.50
612;DHT22;293;53.888;11.464;2022-08-04T06:54:01;42.60;46.70
612;DHT22;293;53.888;11.464;2022-08-04T06:56:30;41.10;48.50
612;DHT22;293;53.888;11.464;2022-08-04T06:59:00;39.60;51.30
612;DHT22;293;53.888;11.464;2022-08-04T07:01:28;38.30;53.50
612;DHT22;293;53.888;11.464;2022-08-04T07:03:56;37.10;55.50
612;DHT22;293;53.888;11.464;2022-08-04T07:06:23;36.10;57.60
612;DHT22;293;53.888;11.464;2022-08-04T07:08:52;35.30;59.40
612;DHT22;293;53.888;11.464;2022-08-04T07:11:21;34.50;60.80
612;DHT22;293;53.888;11.464;2022-08-04T07:13:49;33.90;63.00
612;DHT22;293;53.888;11.464;2022-08-04T07:16:17;33.40;64.30
612;DHT22;293;53.888;11.464;2022-08-04T07:18:46;33.00;65.30
612;DHT22;293;53.888;11.464;2022-08-04T07:21:19;32.50;66.90
612;DHT22;293;53.888;11.464;2022-08-04T07:23:46;32.10;68.30
612;DHT22;293;53.888;11.464;2022-08-04T07:26:15;31.80;69.20
612;DHT22;293;53.888;11.464;2022-08-04T07:28:44;31.50;70.00
612;DHT22;293;53.888;11.464;2022-08-04T07:31:14;31.30;70.50
612;DHT22;293;53.888;11.464;2022-08-04T07:33:41;31.00;70.70
612;DHT22;293;53.888;11.464;2022-08-04T07:36:09;30.90;71.20
612;DHT22;293;53.888;11.464;2022-08-04T07:38:37;30.80;72.80
612;DHT22;293;53.888;11.464;2022-08-04T07:41:04;30.80;73.10
612;DHT22;293;53.888;11.464;2022-08-04T07:43:35;30.90;72.60
612;DHT22;293;53.888;11.464;2022-08-04T07:46:02;30.90;72.90
612;DHT22;293;53.888;11.464;2022-08-04T07:48:29;30.90;73.20
612;DHT22;293;53.888;11.464;2022-08-04T07:50:57;31.00;72.70
612;DHT22;293;53.888;11.464;2022-08-04T07:53:25;31.00;72.30
612;DHT22;293;53.888;11.464;2022-08-04T07:55:52;31.00;71.80
612;DHT22;293;53.888;11.464;2022-08-04T07:58:20;30.90;72.10
612;DHT22;293;53.888;11.464;2022-08-04T08:00:48;30.90;72.20
612;DHT22;293;53.888;11.464;2022-08-04T08:03:16;31.00;73.10
612;DHT22;293;53.888;11.464;2022-08-04T08:05:44;31.00;72.60
612;DHT22;293;53.888;11.464;2022-08-04T08:08:11;31.00;72.40
612;DHT22;293;53.888;11.464;2022-08-04T08:10:45;31.10;71.50
612;DHT22;293;53.888;11.464;2022-08-04T08:13:13;31.10;71.50
612;DHT22;293;53.888;11.464;2022-08-04T08:15:42;31.20;71.60
612;DHT22;293;53.888;11.464;2022-08-04T08:18:11;31.30;70.80
612;DHT22;293;53.888;11.464;2022-08-04T08:20:38;31.30;70.30
612;DHT22;293;53.888;11.464;2022-08-04T08:23:07;31.30;69.90
612;DHT22;293;53.888;11.464;2022-08-04T08:25:34;31.40;69.20
612;DHT22;293;53.888;11.464;2022-08-04T08:28:03;31.40;68.90
612;DHT22;293;53.888;11.464;2022-08-04T08:30:31;31.40;68.40
612;DHT22;293;53.888;11.464;2022-08-04T08:32:59;31.40;67.90
612;DHT22;293;53.888;11.464;2022-08-04T08:35:33;31.40;67.40
612;DHT22;293;53.888;11.464;2022-08-04T08:38:02;31.50;67.70
612;DHT22;293;53.888;11.464;2022-08-04T08:40:38;31.60;67.90
612;DHT22;293;53.888;11.464;2022-08-04T08:43:22;31.60;67.10
612;DHT22;293;53.888;11.464;2022-08-04T08:46:15;31.60;65.70
612;DHT22;293;53.888;11.464;2022-08-04T08:49:07;31.70;65.70
612;DHT22;293;53.888;11.464;2022-08-04T08:51:48;31.70;65.00
612;DHT22;293;53.888;11.464;2022-08-04T08:54:34;31.70;64.40
612;DHT22;293;53.888;11.464;2022-08-04T08:57:18;31.70;64.40
612;DHT22;293;53.888;11.464;2022-08-04T08:59:56;31.70;65.00
612;DHT22;293;53.888;11.464;2022-08-04T09:05:53;31.90;64.20
612;DHT22;293;53.888;11.464;2022-08-04T09:08:34;32.00;63.90
612;DHT22;293;53.888;11.464;2022-08-04T09:11:08;32.00;62.30
612;DHT22;293;53.888;11.464;2022-08-04T09:13:40;32.00;62.10
612;DHT22;293;53.888;11.464;2022-08-04T09:16:15;32.10;62.40
612;DHT22;293;53.888;11.464;2022-08-04T09:18:46;32.20;62.10
612;DHT22;293;53.888;11.464;2022-08-04T09:21:25;32.30;62.00
612;DHT22;293;53.888;11.464;2022-08-04T09:24:02;32.40;61.90
612;DHT22;293;53.888;11.464;2022-08-04T09:26:38;32.40;60.40
612;DHT22;293;53.888;11.464;2022-08-04T09:29:09;32.40;60.80
612;DHT22;293;53.888;11.464;2022-08-04T09:31:45;32.40;59.90
612;DHT22;293;53.888;11.464;2022-08-04T09:34:22;32.50;59.50
612;DHT22;293;53.888;11.464;2022-08-04T09:36:58;32.50;59.10
612;DHT22;293;53.888;11.464;2022-08-04T09:39:39;32.60;59.40
612;DHT22;293;53.888;11.464;2022-08-04T09:42:13;32.60;59.00
612;DHT22;293;53.888;11.464;2022-08-04T09:44:56;32.60;58.60
612;DHT22;293;53.888;11.464;2022-08-04T09:47:31;32.60;58.50
612;DHT22;293;53.888;11.464;2022-08-04T09:50:06;32.70;58.60
612;DHT22;293;53.888;11.464;2022-08-04T09:52:45;32.80;57.90
612;DHT22;293;53.888;11.464;2022-08-04T09:55:28;32.80;58.60
612;DHT22;293;53.888;11.464;2022-08-04T09:58:16;32.80;57.90
612;DHT22;293;53.888;11.464;2022-08-04T10:00:51;32.90;57.10
612;DHT22;293;53.888;11.464;2022-08-04T10:03:21;33.00;57.10
612;DHT22;293;53.888;11.464;2022-08-04T10:05:59;33.10;57.50
612;DHT22;293;53.888;11.464;2022-08-04T10:08:42;33.20;57.20
612;DHT22;293;53.888;11.464;2022-08-04T10:11:32;33.30;56.90
612;DHT22;293;53.888;11.464;2022-08-04T10:14:07;33.40;56.60
612;DHT22;293;53.888;11.464;2022-08-04T10:16:43;33.50;56.50
612;DHT22;293;53.888;11.464;2022-08-04T10:19:27;33.50;56.20
612;DHT22;293;53.888;11.464;2022-08-04T10:22:05;33.50;56.20
612;DHT22;293;53.888;11.464;2022-08-04T10:24:41;33.60;55.30
612;DHT22;293;53.888;11.464;2022-08-04T10:27:15;33.60;54.10
612;DHT22;293;53.888;11.464;2022-08-04T10:29:45;33.60;54.50
612;DHT22;293;53.888;11.464;2022-08-04T10:32:17;33.60;53.80
612;DHT22;293;53.888;11.464;2022-08-04T10:34:58;33.50;53.30
612;DHT22;293;53.888;11.464;2022-08-04T10:37:30;33.60;54.20
612;DHT22;293;53.888;11.464;2022-08-04T10:40:02;33.60;53.80
612;DHT22;293;53.888;11.464;2022-08-04T10:42:58;33.60;53.80
612;DHT22;293;53.888;11.464;2022-08-04T10:45:31;33.50;53.90
612;DHT22;293;53.888;11.464;2022-08-04T10:48:06;33.50;53.60
612;DHT22;293;53.888;11.464;2022-08-04T10:50:35;33.50;53.80
612;DHT22;293;53.888;11.464;2022-08-04T10:53:06;33.50;53.60
612;DHT22;293;53.888;11.464;2022-08-04T10:55:37;33.60;53.00
612;DHT22;293;53.888;11.464;2022-08-04T10:58:12;33.60;52.40
612;DHT22;293;53.888;11.464;2022-08-04T11:00:43;33.70;52.80
612;DHT22;293;53.888;11.464;2022-08-04T11:03:16;33.80;52.80
612;DHT22;293;53.888;11.464;2022-08-04T11:05:48;33.90;53.40
612;DHT22;293;53.888;11.464;2022-08-04T11:08:17;33.90;52.40
612;DHT22;293;53.888;11.464;2022-08-04T11:10:50;34.00;51.20
612;DHT22;293;53.888;11.464;2022-08-04T11:13:23;33.90;51.70
612;DHT22;293;53.888;11.464;2022-08-04T11:15:53;33.90;51.30
612;DHT22;293;53.888;11.464;2022-08-04T11:18:24;34.00;52.00
612;DHT22;293;53.888;11.464;2022-08-04T11:20:57;34.00;51.30
612;DHT22;293;53.888;11.464;2022-08-04T11:23:32;34.00;51.60
612;DHT22;293;53.888;11.464;2022-08-04T11:26:04;34.00;51.10
612;DHT22;293;53.888;11.464;2022-08-04T11:28:45;34.10;51.70
612;DHT22;293;53.888;11.464;2022-08-04T11:31:18;34.10;51.60
612;DHT22;293;53.888;11.464;2022-08-04T11:33:51;34.10;52.10
612;DHT22;293;53.888;11.464;2022-08-04T11:36:28;34.10;51.60
612;DHT22;293;53.888;11.464;2022-08-04T11:39:02;34.20;50.80
612;DHT22;293;53.888;11.464;2022-08-04T11:41:39;34.20;50.80
612;DHT22;293;53.888;11.464;2022-08-04T11:44:15;34.30;50.80
612;DHT22;293;53.888;11.464;2022-08-04T11:46:47;34.40;51.00
612;DHT22;293;53.888;11.464;2022-08-04T11:49:25;34.40;51.50
612;DHT22;293;53.888;11.464;2022-08-04T11:51:55;34.40;50.10
612;DHT22;293;53.888;11.464;2022-08-04T11:54:23;34.40;49.80
612;DHT22;293;53.888;11.464;2022-08-04T11:56:51;34.50;50.60
612;DHT22;293;53.888;11.464;2022-08-04T11:59:21;34.70;50.60
612;DHT22;293;53.888;11.464;2022-08-04T12:02:01;34.70;50.00
612;DHT22;293;53.888;11.464;2022-08-04T12:04:42;34.80;49.50
612;DHT22;293;53.888;11.464;2022-08-04T12:07:16;34.80;49.30
612;DHT22;293;53.888;11.464;2022-08-04T12:09:51;34.70;49.60
612;DHT22;293;53.888;11.464;2022-08-04T12:12:27;34.80;49.70
612;DHT22;293;53.888;11.464;2022-08-04T12:15:02;34.70;50.10
612;DHT22;293;53.888;11.464;2022-08-04T12:17:35;34.70;49.60
612;DHT22;293;53.888;11.464;2022-08-04T12:20:05;34.70;49.80
612;DHT22;293;53.888;11.464;2022-08-04T12:22:38;34.70;50.50
612;DHT22;293;53.888;11.464;2022-08-04T12:25:08;34.80;49.40
612;DHT22;293;53.888;11.464;2022-08-04T12:27:40;34.80;49.70
612;DHT22;293;53.888;11.464;2022-08-04T12:30:10;34.80;49.40
612;DHT22;293;53.888;11.464;2022-08-04T12:32:40;34.70;50.10
612;DHT22;293;53.888;11.464;2022-08-04T12:35:12;34.70;50.20
612;DHT22;293;53.888;11.464;2022-08-04T12:37:46;34.80;49.30
612;DHT22;293;53.888;11.464;2022-08-04T12:40:16;34.70;48.90
612;DHT22;293;53.888;11.464;2022-08-04T12:42:53;34.70;49.00
612;DHT22;293;53.888;11.464;2022-08-04T12:45:24;34.80;48.70
612;DHT22;293;53.888;11.464;2022-08-04T12:47:52;34.80;49.00
612;DHT22;293;53.888;11.464;2022-08-04T12:50:19;34.70;48.40
612;DHT22;293;53.888;11.464;2022-08-04T12:52:50;34.80;49.10
612;DHT22;293;53.888;11.464;2022-08-04T12:55:21;34.80;49.20
612;DHT22;293;53.888;11.464;2022-08-04T12:57:50;34.70;48.30
612;DHT22;293;53.888;11.464;2022-08-04T13:00:27;34.60;47.60
612;DHT22;293;53.888;11.464;2022-08-04T13:02:58;34.50;48.20
612;DHT22;293;53.888;11.464;2022-08-04T13:05:29;34.60;48.10
612;DHT22;293;53.888;11.464;2022-08-04T13:07:57;34.60;48.80
612;DHT22;293;53.888;11.464;2022-08-04T13:10:25;34.50;48.70
612;DHT22;293;53.888;11.464;2022-08-04T13:12:55;34.50;48.10
612;DHT22;293;53.888;11.464;2022-08-04T13:15:25;34.50;48.90
612;DHT22;293;53.888;11.464;2022-08-04T13:17:55;34.50;48.50
612;DHT22;293;53.888;11.464;2022-08-04T13:20:26;34.50;48.30
612;DHT22;293;53.888;11.464;2022-08-04T13:23:07;34.60;48.00
612;DHT22;293;53.888;11.464;2022-08-04T13:25:36;34.70;48.80
612;DHT22;293;53.888;11.464;2022-08-04T13:28:12;34.70;48.00
612;DHT22;293;53.888;11.464;2022-08-04T13:30:43;34.80;47.90
612;DHT22;293;53.888;11.464;2022-08-04T13:33:11;34.80;47.60
612;DHT22;293;53.888;11.464;2022-08-04T13:35:42;34.70;47.90
612;DHT22;293;53.888;11.464;2022-08-04T13:38:11;34.70;47.10
612;DHT22;293;53.888;11.464;2022-08-04T13:40:40;34.70;47.70
612;DHT22;293;53.888;11.464;2022-08-04T13:43:10;34.80;48.50
612;DHT22;293;53.888;11.464;2022-08-04T13:45:41;34.80;48.20
612;DHT22;293;53.888;11.464;2022-08-04T13:48:09;35.00;47.30
612;DHT22;293;53.888;11.464;2022-08-04T13:50:38;35.00;47.20
612;DHT22;293;53.888;11.464;2022-08-04T13:53:11;35.10;47.00
612;DHT22;293;53.888;11.464;2022-08-04T13:55:38;35.10;47.30
612;DHT22;293;53.888;11.464;2022-08-04T13:58:08;35.10;46.80
612;DHT22;293;53.888;11.464;2022-08-04T14:00:42;35.00;46.60
612;DHT22;293;53.888;11.464;2022-08-04T14:03:13;35.00;46.80
612;DHT22;293;53.888;11.464;2022-08-04T14:05:41;35.00;46.10
612;DHT22;293;53.888;11.464;2022-08-04T14:08:14;35.00;46.00
612;DHT22;293;53.888;11.464;2022-08-04T14:10:52;35.00;46.00
612;DHT22;293;53.888;11.464;2022-08-04T14:13:28;35.00;45.80
612;DHT22;293;53.888;11.464;2022-08-04T14:15:56;35.00;45.70
612;DHT22;293;53.888;11.464;2022-08-04T14:18:25;35.00;46.30
612;DHT22;293;53.888;11.464;2022-08-04T14:21:01;35.00;46.40
612;DHT22;293;53.888;11.464;2022-08-04T14:23:37;35.00;46.50
612;DHT22;293;53.888;11.464;2022-08-04T14:26:20;34.90;46.90
612;DHT22;293;53.888;11.464;2022-08-04T14:28:48;34.90;46.70
612;DHT22;293;53.888;11.464;2022-08-04T14:31:18;34.90;46.30
612;DHT22;293;53.888;11.464;2022-08-04T14:33:46;35.00;46.20
612;DHT22;293;53.888;11.464;2022-08-04T14:36:13;35.00;45.80
612;DHT22;293;53.888;11.464;2022-08-04T14:38:44;35.00;45.50
612;DHT22;293;53.888;11.464;2022-08-04T14:41:12;35.00;46.00
612;DHT22;293;53.888;11.464;2022-08-04T14:43:47;35.00;45.90
612;DHT22;293;53.888;11.464;2022-08-04T14:46:16;35.00;45.40
612;DHT22;293;53.888;11.464;2022-08-04T14:49:00;34.90;45.90
612;DHT22;293;53.888;11.464;2022-08-04T14:51:27;34.90;45.50
612;DHT22;293;53.888;11.464;2022-08-04T14:53:59;34.90;45.70
612;DHT22;293;53.888;11.464;2022-08-04T14:56:26;34.90;45.60
612;DHT22;293;53.888;11.464;2022-08-04T14:58:59;34.80;45.40
612;DHT22;293;53.888;11.464;2022-08-04T15:01:28;34.70;45.50
612;DHT22;293;53.888;11.464;2022-08-04T15:03:56;34.60;45.50
612;DHT22;293;53.888;11.464;2022-08-04T15:06:25;34.50;46.00
612;DHT22;293;53.888;11.464;2022-08-04T15:08:54;34.40;45.60
612;DHT22;293;53.888;11.464;2022-08-04T15:11:21;34.40;46.10
612;DHT22;293;53.888;11.464;2022-08-04T15:13:48;34.30;45.60
612;DHT22;293;53.888;11.464;2022-08-04T15:16:15;34.30;45.60
612;DHT22;293;53.888;11.464;2022-08-04T15:18:44;34.30;45.20
612;DHT22;293;53.888;11.464;2022-08-04T15:21:11;34.30;45.60
612;DHT22;293;53.888;11.464;2022-08-04T15:23:40;34.20;45.80
612;DHT22;293;53.888;11.464;2022-08-04T15:26:10;34.20;45.80
612;DHT22;293;53.888;11.464;2022-08-04T15:28:40;34.20;46.10
612;DHT22;293;53.888;11.464;2022-08-04T15:31:08;34.10;45.70
612;DHT22;293;53.888;11.464;2022-08-04T15:33:38;34.10;45.80
612;DHT22;293;53.888;11.464;2022-08-04T15:36:14;34.10;45.90
612;DHT22;293;53.888;11.464;2022-08-04T15:38:49;34.20;45.90
612;DHT22;293;53.888;11.464;2022-08-04T15:41:25;34.20;46.00
612;DHT22;293;53.888;11.464;2022-08-04T15:44:05;34.20;46.00
612;DHT22;293;53.888;11.464;2022-08-04T15:47:14;34.10;46.70
612;DHT22;293;53.888;11.464;2022-08-04T15:49:42;34.10;46.90
612;DHT22;293;53.888;11.464;2022-08-04T15:52:13;33.90;47.00
612;DHT22;293;53.888;11.464;2022-08-04T15:54:42;33.80;46.80
612;DHT22;293;53.888;11.464;2022-08-04T15:57:10;33.70;46.50
612;DHT22;293;53.888;11.464;2022-08-04T15:59:57;33.60;47.20
612;DHT22;293;53.888;11.464;2022-08-04T16:02:38;33.50;47.50
612;DHT22;293;53.888;11.464;2022-08-04T16:05:29;33.40;47.20
612;DHT22;293;53.888;11.464;2022-08-04T16:08:08;33.30;47.80
612;DHT22;293;53.888;11.464;2022-08-04T16:10:37;33.20;48.00
612;DHT22;293;53.888;11.464;2022-08-04T16:13:05;33.20;48.00
612;DHT22;293;53.888;11.464;2022-08-04T16:15:36;33.20;48.30
612;DHT22;293;53.888;11.464;2022-08-04T16:18:04;33.10;49.20
612;DHT22;293;53.888;11.464;2022-08-04T16:20:33;32.90;49.80
612;DHT22;293;53.888;11.464;2022-08-04T16:23:15;32.80;50.50
612;DHT22;293;53.888;11.464;2022-08-04T16:25:47;32.50;51.00
612;DHT22;293;53.888;11.464;2022-08-04T16:28:35;32.40;51.70
612;DHT22;293;53.888;11.464;2022-08-04T16:31:03;32.10;52.40
612;DHT22;293;53.888;11.464;2022-08-04T16:33:32;32.00;52.70
612;DHT22;293;53.888;11.464;2022-08-04T16:36:00;31.90;52.60
612;DHT22;293;53.888;11.464;2022-08-04T16:38:28;31.80;53.00
612;DHT22;293;53.888;11.464;2022-08-04T16:40:56;31.70;52.60
612;DHT22;293;53.888;11.464;2022-08-04T16:43:27;31.60;52.80
612;DHT22;293;53.888;11.464;2022-08-04T16:45:56;31.60;52.90
612;DHT22;293;53.888;11.464;2022-08-04T16:48:25;31.50;53.20
612;DHT22;293;53.888;11.464;2022-08-04T16:51:00;31.40;52.40
612;DHT22;293;53.888;11.464;2022-08-04T16:53:33;31.40;52.90
612;DHT22;293;53.888;11.464;2022-08-04T16:56:00;31.30;53.20
612;DHT22;293;53.888;11.464;2022-08-04T16:58:29;31.20;57.90
612;DHT22;293;53.888;11.464;2022-08-04T17:00:57;31.10;62.80
612;DHT22;293;53.888;11.464;2022-08-04T17:03:24;30.50;71.20
612;DHT22;293;53.888;11.464;2022-08-04T17:06:07;29.90;72.30
612;DHT22;293;53.888;11.464;2022-08-04T17:08:36;29.30;74.00
612;DHT22;293;53.888;11.464;2022-08-04T17:11:04;28.70;76.80
612;DHT22;293;53.888;11.464;2022-08-04T17:13:32;28.00;78.70
612;DHT22;293;53.888;11.464;2022-08-04T17:16:02;27.50;81.50
612;DHT22;293;53.888;11.464;2022-08-04T17:18:31;27.10;84.70
612;DHT22;293;53.888;11.464;2022-08-04T17:21:01;26.70;88.20
612;DHT22;293;53.888;11.464;2022-08-04T17:23:36;26.00;90.30
612;DHT22;293;53.888;11.464;2022-08-04T17:26:07;25.40;92.10
612;DHT22;293;53.888;11.464;2022-08-04T17:28:35;24.90;94.00
612;DHT22;293;53.888;11.464;2022-08-04T17:31:03;24.40;96.30
612;DHT22;293;53.888;11.464;2022-08-04T17:33:30;23.90;98.20